sensor_id;sensor_type;location;lat;lon;timestamp;P1;durP1;ratioP1;P2;durP2;ratioP2
5519;SDS011;2782;52.362;10.012;2022-10-16T00:01:58;3.43;;;1.43;;
5519;SDS011;2782;52.362;10.012;2022-10-16T00:08:40;2.53;;;1.00;;
5519;SDS011;2782;52.362;10.012;2022-10-16T00:15:23;4.43;;;1.23;;
5519;SDS011;2782;52.362;10.012;2022-10-16T00:22:05;2.00;;;0.97;;
5519;SDS011;2782;52.362;10.012;2022-10-16T00:28:47;1.73;;;0.83;;
5519;SDS011;2782;52.362;10.012;2022-10-16T00:35:31;1.90;;;0.80;;
5519;SDS011;2782;52.362;10.012;2022-10-16T00:42:13;3.33;;;0.87;;
5519;SDS011;2782;52.362;10.012;2022-10-16T00:48:57;1.53;;;0.70;;
5519;SDS011;2782;52.362;10.012;2022-10-16T00:55:45;1.73;;;0.67;;
5519;SDS011;2782;52.362;10.012;2022-10-16T01:02:27;1.73;;;0.73;;
5519;SDS011;2782;52.362;10.012;2022-10-16T01:09:13;2.77;;;1.20;;
5519;SDS011;2782;52.362;10.012;2022-10-16T01:16:00;1.77;;;0.50;;
5519;SDS011;2782;52.362;10.012;2022-10-16T01:22:59;1.27;;;0.60;;
5519;SDS011;2782;52.362;10.012;2022-10-16T01:29:50;3.27;;;0.60;;
5519;SDS011;2782;52.362;10.012;2022-10-16T01:36:35;1.40;;;0.40;;
5519;SDS011;2782;52.362;10.012;2022-10-16T01:43:22;0.60;;;0.40;;
5519;SDS011;2782;52.362;10.012;2022-10-16T01:50:09;1.27;;;0.47;;
5519;SDS011;2782;52.362;10.012;2022-10-16T01:56:52;0.57;;;0.30;;
5519;SDS011;2782;52.362;10.012;2022-10-16T02:03:36;0.70;;;0.40;;
5519;SDS011;2782;52.362;10.012;2022-10-16T02:10:22;0.80;;;0.40;;
5519;SDS011;2782;52.362;10.012;2022-10-16T02:17:09;8.30;;;0.43;;
5519;SDS011;2782;52.362;10.012;2022-10-16T02:23:54;0.50;;;0.30;;
5519;SDS011;2782;52.362;10.012;2022-10-16T02:30:42;0.90;;;0.30;;
5519;SDS011;2782;52.362;10.012;2022-10-16T02:37:28;2.63;;;0.40;;
5519;SDS011;2782;52.362;10.012;2022-10-16T02:44:10;4.20;;;0.80;;
5519;SDS011;2782;52.362;10.012;2022-10-16T02:50:53;1.47;;;0.60;;
5519;SDS011;2782;52.362;10.012;2022-10-16T02:57:35;2.67;;;0.93;;
5519;SDS011;2782;52.362;10.012;2022-10-16T03:04:17;4.37;;;1.33;;
5519;SDS011;2782;52.362;10.012;2022-10-16T03:11:00;9.90;;;1.73;;
5519;SDS011;2782;52.362;10.012;2022-10-16T03:17:41;5.87;;;1.70;;
5519;SDS011;2782;52.362;10.012;2022-10-16T03:24:23;10.00;;;1.63;;
5519;SDS011;2782;52.362;10.012;2022-10-16T03:31:06;9.43;;;2.70;;
5519;SDS011;2782;52.362;10.012;2022-10-16T03:37:48;6.13;;;1.40;;
5519;SDS011;2782;52.362;10.012;2022-10-16T03:44:30;7.57;;;1.80;;
5519;SDS011;2782;52.362;10.012;2022-10-16T03:51:13;7.37;;;1.97;;
5519;SDS011;2782;52.362;10.012;2022-10-16T03:57:55;8.97;;;1.83;;
5519;SDS011;2782;52.362;10.012;2022-10-16T04:04:36;9.80;;;2.27;;
5519;SDS011;2782;52.362;10.012;2022-10-16T04:11:19;7.77;;;2.03;;
5519;SDS011;2782;52.362;10.012;2022-10-16T04:18:01;6.23;;;1.63;;
5519;SDS011;2782;52.362;10.012;2022-10-16T04:24:44;6.33;;;2.13;;
5519;SDS011;2782;52.362;10.012;2022-10-16T04:31:27;7.63;;;1.60;;
5519;SDS011;2782;52.362;10.012;2022-10-16T04:38:08;5.23;;;1.80;;
5519;SDS011;2782;52.362;10.012;2022-10-16T04:44:50;4.57;;;1.80;;
5519;SDS011;2782;52.362;10.012;2022-10-16T04:51:33;9.67;;;2.60;;
5519;SDS011;2782;52.362;10.012;2022-10-16T04:58:15;8.40;;;2.23;;
5519;SDS011;2782;52.362;10.012;2022-10-16T05:04:56;5.97;;;1.90;;
5519;SDS011;2782;52.362;10.012;2022-10-16T05:11:39;7.10;;;1.90;;
5519;SDS011;2782;52.362;10.012;2022-10-16T05:18:21;6.93;;;1.80;;
5519;SDS011;2782;52.362;10.012;2022-10-16T05:25:03;8.97;;;2.23;;
5519;SDS011;2782;52.362;10.012;2022-10-16T05:31:46;7.20;;;2.10;;
5519;SDS011;2782;52.362;10.012;2022-10-16T05:38:31;9.57;;;2.20;;
5519;SDS011;2782;52.362;10.012;2022-10-16T05:45:13;5.67;;;1.77;;
5519;SDS011;2782;52.362;10.012;2022-10-16T05:51:56;7.03;;;2.30;;
5519;SDS011;2782;52.362;10.012;2022-10-16T05:58:38;3.67;;;1.37;;
5519;SDS011;2782;52.362;10.012;2022-10-16T06:05:21;4.00;;;1.87;;
5519;SDS011;2782;52.362;10.012;2022-10-16T06:12:04;6.97;;;1.80;;
5519;SDS011;2782;52.362;10.012;2022-10-16T06:18:46;2.63;;;1.07;;
5519;SDS011;2782;52.362;10.012;2022-10-16T06:25:27;5.37;;;1.63;;
5519;SDS011;2782;52.362;10.012;2022-10-16T06:32:10;7.33;;;1.33;;
5519;SDS011;2782;52.362;10.012;2022-10-16T06:38:52;2.63;;;1.10;;
5519;SDS011;2782;52.362;10.012;2022-10-16T06:45:34;1.67;;;0.83;;
5519;SDS011;2782;52.362;10.012;2022-10-16T06:52:17;4.73;;;1.40;;
5519;SDS011;2782;52.362;10.012;2022-10-16T06:58:59;3.10;;;1.20;;
5519;SDS011;2782;52.362;10.012;2022-10-16T07:05:41;3.37;;;1.17;;
5519;SDS011;2782;52.362;10.012;2022-10-16T07:12:25;9.50;;;1.47;;
5519;SDS011;2782;52.362;10.012;2022-10-16T07:19:07;15.97;;;1.60;;
5519;SDS011;2782;52.362;10.012;2022-10-16T07:25:55;23.83;;;2.77;;
5519;SDS011;2782;52.362;10.012;2022-10-16T07:32:38;11.57;;;2.30;;
5519;SDS011;2782;52.362;10.012;2022-10-16T07:39:19;14.23;;;2.20;;
5519;SDS011;2782;52.362;10.012;2022-10-16T07:46:01;5.10;;;1.40;;
5519;SDS011;2782;52.362;10.012;2022-10-16T07:52:44;7.57;;;1.60;;
5519;SDS011;2782;52.362;10.012;2022-10-16T07:59:26;5.13;;;1.20;;
5519;SDS011;2782;52.362;10.012;2022-10-16T08:06:07;13.20;;;1.80;;
5519;SDS011;2782;52.362;10.012;2022-10-16T08:12:51;9.30;;;1.70;;
5519;SDS011;2782;52.362;10.012;2022-10-16T08:19:33;9.50;;;1.60;;
5519;SDS011;2782;52.362;10.012;2022-10-16T08:26:14;6.73;;;1.20;;
5519;SDS011;2782;52.362;10.012;2022-10-16T08:32:57;7.70;;;1.00;;
5519;SDS011;2782;52.362;10.012;2022-10-16T08:39:39;8.17;;;1.80;;
5519;SDS011;2782;52.362;10.012;2022-10-16T08:46:24;10.03;;;1.17;;
5519;SDS011;2782;52.362;10.012;2022-10-16T08:53:17;3.70;;;1.00;;
5519;SDS011;2782;52.362;10.012;2022-10-16T09:00:08;2.00;;;0.83;;
5519;SDS011;2782;52.362;10.012;2022-10-16T09:06:54;17.00;;;1.20;;
5519;SDS011;2782;52.362;10.012;2022-10-16T09:13:43;3.93;;;1.00;;
5519;SDS011;2782;52.362;10.012;2022-10-16T09:20:34;16.00;;;1.80;;
5519;SDS011;2782;52.362;10.012;2022-10-16T09:27:32;27.53;;;1.33;;
5519;SDS011;2782;52.362;10.012;2022-10-16T09:34:17;11.13;;;1.23;;
5519;SDS011;2782;52.362;10.012;2022-10-16T09:41:11;5.50;;;1.20;;
5519;SDS011;2782;52.362;10.012;2022-10-16T09:47:57;2.10;;;0.83;;
5519;SDS011;2782;52.362;10.012;2022-10-16T09:54:49;7.57;;;1.37;;
5519;SDS011;2782;52.362;10.012;2022-10-16T10:01:35;4.43;;;0.70;;
5519;SDS011;2782;52.362;10.012;2022-10-16T10:08:18;3.97;;;0.60;;
5519;SDS011;2782;52.362;10.012;2022-10-16T10:15:05;2.37;;;0.50;;
5519;SDS011;2782;52.362;10.012;2022-10-16T10:21:48;3.53;;;0.77;;
5519;SDS011;2782;52.362;10.012;2022-10-16T10:35:39;3.87;;;0.90;;
5519;SDS011;2782;52.362;10.012;2022-10-16T10:42:25;6.23;;;0.60;;
5519;SDS011;2782;52.362;10.012;2022-10-16T10:49:16;6.70;;;0.80;;
5519;SDS011;2782;52.362;10.012;2022-10-16T10:56:14;2.50;;;0.50;;
5519;SDS011;2782;52.362;10.012;2022-10-16T11:03:07;3.27;;;0.40;;
5519;SDS011;2782;52.362;10.012;2022-10-16T11:10:01;2.67;;;0.47;;
5519;SDS011;2782;52.362;10.012;2022-10-16T11:16:48;18.83;;;1.17;;
5519;SDS011;2782;52.362;10.012;2022-10-16T11:23:35;21.03;;;5.87;;
5519;SDS011;2782;52.362;10.012;2022-10-16T11:30:24;77.30;;;31.63;;
5519;SDS011;2782;52.362;10.012;2022-10-16T11:37:09;61.30;;;26.60;;
5519;SDS011;2782;52.362;10.012;2022-10-16T11:43:58;61.67;;;27.70;;
5519;SDS011;2782;52.362;10.012;2022-10-16T11:50:54;54.60;;;23.23;;
5519;SDS011;2782;52.362;10.012;2022-10-16T11:57:43;62.57;;;28.33;;
5519;SDS011;2782;52.362;10.012;2022-10-16T12:04:29;69.87;;;25.90;;
5519;SDS011;2782;52.362;10.012;2022-10-16T12:11:31;49.70;;;23.40;;
5519;SDS011;2782;52.362;10.012;2022-10-16T12:18:22;54.13;;;22.20;;
5519;SDS011;2782;52.362;10.012;2022-10-16T12:25:05;63.90;;;20.77;;
5519;SDS011;2782;52.362;10.012;2022-10-16T12:32:00;81.20;;;23.53;;
5519;SDS011;2782;52.362;10.012;2022-10-16T12:38:47;110.20;;;35.27;;
5519;SDS011;2782;52.362;10.012;2022-10-16T12:45:31;144.73;;;44.30;;
5519;SDS011;2782;52.362;10.012;2022-10-16T12:52:25;121.97;;;41.87;;
5519;SDS011;2782;52.362;10.012;2022-10-16T12:59:11;117.63;;;38.50;;
5519;SDS011;2782;52.362;10.012;2022-10-16T13:06:05;103.53;;;38.07;;
5519;SDS011;2782;52.362;10.012;2022-10-16T13:13:00;109.47;;;35.67;;
5519;SDS011;2782;52.362;10.012;2022-10-16T13:19:55;90.53;;;34.50;;
5519;SDS011;2782;52.362;10.012;2022-10-16T13:26:46;110.50;;;32.13;;
5519;SDS011;2782;52.362;10.012;2022-10-16T13:33:37;86.37;;;31.40;;
5519;SDS011;2782;52.362;10.012;2022-10-16T13:40:22;72.93;;;29.00;;
5519;SDS011;2782;52.362;10.012;2022-10-16T13:47:04;83.10;;;26.27;;
5519;SDS011;2782;52.362;10.012;2022-10-16T13:53:46;56.07;;;24.00;;
5519;SDS011;2782;52.362;10.012;2022-10-16T14:00:29;58.87;;;21.40;;
5519;SDS011;2782;52.362;10.012;2022-10-16T14:07:13;70.47;;;20.93;;
5519;SDS011;2782;52.362;10.012;2022-10-16T14:13:56;69.73;;;20.50;;
5519;SDS011;2782;52.362;10.012;2022-10-16T14:20:39;64.23;;;20.20;;
5519;SDS011;2782;52.362;10.012;2022-10-16T14:27:23;55.47;;;18.50;;
5519;SDS011;2782;52.362;10.012;2022-10-16T14:34:24;54.70;;;16.77;;
5519;SDS011;2782;52.362;10.012;2022-10-16T14:41:09;40.83;;;15.40;;
5519;SDS011;2782;52.362;10.012;2022-10-16T14:47:52;26.93;;;11.53;;
5519;SDS011;2782;52.362;10.012;2022-10-16T14:54:35;27.73;;;10.60;;
5519;SDS011;2782;52.362;10.012;2022-10-16T15:01:18;23.57;;;9.03;;
5519;SDS011;2782;52.362;10.012;2022-10-16T15:08:00;33.43;;;10.27;;
5519;SDS011;2782;52.362;10.012;2022-10-16T15:14:42;24.33;;;8.40;;
5519;SDS011;2782;52.362;10.012;2022-10-16T15:21:26;19.63;;;8.10;;
5519;SDS011;2782;52.362;10.012;2022-10-16T15:28:09;18.77;;;7.83;;
5519;SDS011;2782;52.362;10.012;2022-10-16T15:34:52;18.80;;;7.40;;
5519;SDS011;2782;52.362;10.012;2022-10-16T15:41:35;24.60;;;8.15;;
5519;SDS011;2782;52.362;10.012;2022-10-16T15:48:17;31.13;;;8.27;;
5519;SDS011;2782;52.362;10.012;2022-10-16T15:54:58;23.00;;;6.87;;
5519;SDS011;2782;52.362;10.012;2022-10-16T16:01:42;29.77;;;6.43;;
5519;SDS011;2782;52.362;10.012;2022-10-16T16:08:23;23.03;;;6.20;;
5519;SDS011;2782;52.362;10.012;2022-10-16T16:15:06;16.43;;;6.50;;
5519;SDS011;2782;52.362;10.012;2022-10-16T16:21:51;27.73;;;6.00;;
5519;SDS011;2782;52.362;10.012;2022-10-16T16:28:32;32.53;;;6.77;;
5519;SDS011;2782;52.362;10.012;2022-10-16T16:35:15;28.87;;;6.33;;
5519;SDS011;2782;52.362;10.012;2022-10-16T16:41:58;44.37;;;8.10;;
5519;SDS011;2782;52.362;10.012;2022-10-16T16:48:39;66.50;;;8.00;;
5519;SDS011;2782;52.362;10.012;2022-10-16T16:55:21;38.77;;;6.00;;
5519;SDS011;2782;52.362;10.012;2022-10-16T17:02:04;19.03;;;5.77;;
5519;SDS011;2782;52.362;10.012;2022-10-16T17:08:46;31.07;;;7.17;;
5519;SDS011;2782;52.362;10.012;2022-10-16T17:15:28;52.43;;;7.80;;
5519;SDS011;2782;52.362;10.012;2022-10-16T17:22:11;36.13;;;6.83;;
5519;SDS011;2782;52.362;10.012;2022-10-16T17:28:54;34.17;;;7.47;;
5519;SDS011;2782;52.362;10.012;2022-10-16T17:35:37;39.00;;;6.93;;
5519;SDS011;2782;52.362;10.012;2022-10-16T17:42:21;22.60;;;7.00;;
5519;SDS011;2782;52.362;10.012;2022-10-16T17:49:02;12.60;;;5.63;;
5519;SDS011;2782;52.362;10.012;2022-10-16T17:55:44;12.90;;;4.07;;
5519;SDS011;2782;52.362;10.012;2022-10-16T18:02:27;10.63;;;3.20;;
5519;SDS011;2782;52.362;10.012;2022-10-16T18:09:10;16.87;;;3.27;;
5519;SDS011;2782;52.362;10.012;2022-10-16T18:15:58;20.60;;;3.30;;
5519;SDS011;2782;52.362;10.012;2022-10-16T18:22:42;14.10;;;3.80;;
5519;SDS011;2782;52.362;10.012;2022-10-16T18:29:24;16.07;;;4.40;;
5519;SDS011;2782;52.362;10.012;2022-10-16T18:36:08;15.97;;;4.47;;
5519;SDS011;2782;52.362;10.012;2022-10-16T18:42:52;18.40;;;6.70;;
5519;SDS011;2782;52.362;10.012;2022-10-16T18:49:34;15.77;;;8.00;;
5519;SDS011;2782;52.362;10.012;2022-10-16T18:56:17;19.07;;;8.07;;
5519;SDS011;2782;52.362;10.012;2022-10-16T19:03:01;11.27;;;7.90;;
5519;SDS011;2782;52.362;10.012;2022-10-16T19:09:42;18.27;;;8.73;;
5519;SDS011;2782;52.362;10.012;2022-10-16T19:16:25;15.17;;;8.67;;
5519;SDS011;2782;52.362;10.012;2022-10-16T19:23:10;23.40;;;8.50;;
5519;SDS011;2782;52.362;10.012;2022-10-16T19:29:51;21.67;;;8.30;;
5519;SDS011;2782;52.362;10.012;2022-10-16T19:36:33;20.77;;;8.90;;
5519;SDS011;2782;52.362;10.012;2022-10-16T19:43:18;16.30;;;8.20;;
5519;SDS011;2782;52.362;10.012;2022-10-16T19:49:59;19.77;;;8.80;;
5519;SDS011;2782;52.362;10.012;2022-10-16T19:56:42;12.87;;;8.53;;
5519;SDS011;2782;52.362;10.012;2022-10-16T20:03:25;12.43;;;8.87;;
5519;SDS011;2782;52.362;10.012;2022-10-16T20:10:07;14.40;;;10.20;;
5519;SDS011;2782;52.362;10.012;2022-10-16T20:16:49;18.10;;;11.90;;
5519;SDS011;2782;52.362;10.012;2022-10-16T20:23:33;14.30;;;11.57;;
5519;SDS011;2782;52.362;10.012;2022-10-16T20:30:15;13.50;;;9.30;;
5519;SDS011;2782;52.362;10.012;2022-10-16T20:36:57;5.90;;;5.40;;
5519;SDS011;2782;52.362;10.012;2022-10-16T20:43:41;6.13;;;5.53;;
5519;SDS011;2782;52.362;10.012;2022-10-16T20:50:24;9.50;;;5.40;;
5519;SDS011;2782;52.362;10.012;2022-10-16T20:57:08;5.70;;;5.20;;
5519;SDS011;2782;52.362;10.012;2022-10-16T21:03:52;6.23;;;5.10;;
5519;SDS011;2782;52.362;10.012;2022-10-16T21:10:35;9.30;;;4.97;;
5519;SDS011;2782;52.362;10.012;2022-10-16T21:17:17;5.50;;;4.47;;
5519;SDS011;2782;52.362;10.012;2022-10-16T21:24:00;11.73;;;5.00;;
5519;SDS011;2782;52.362;10.012;2022-10-16T21:30:42;5.80;;;4.40;;
5519;SDS011;2782;52.362;10.012;2022-10-16T21:37:24;7.97;;;4.30;;
5519;SDS011;2782;52.362;10.012;2022-10-16T21:44:07;7.13;;;4.30;;
5519;SDS011;2782;52.362;10.012;2022-10-16T21:50:52;4.57;;;4.00;;
5519;SDS011;2782;52.362;10.012;2022-10-16T21:57:33;4.27;;;3.83;;
5519;SDS011;2782;52.362;10.012;2022-10-16T22:04:17;4.00;;;3.50;;
5519;SDS011;2782;52.362;10.012;2022-10-16T22:11:02;4.53;;;3.80;;
5519;SDS011;2782;52.362;10.012;2022-10-16T22:17:44;3.87;;;3.57;;
5519;SDS011;2782;52.362;10.012;2022-10-16T22:24:27;3.93;;;3.63;;
5519;SDS011;2782;52.362;10.012;2022-10-16T22:31:10;3.50;;;3.30;;
5519;SDS011;2782;52.362;10.012;2022-10-16T22:37:53;3.37;;;3.10;;
5519;SDS011;2782;52.362;10.012;2022-10-16T22:44:36;3.47;;;3.20;;
5519;SDS011;2782;52.362;10.012;2022-10-16T22:51:21;3.17;;;3.07;;
5519;SDS011;2782;52.362;10.012;2022-10-16T22:58:03;3.23;;;3.03;;
5519;SDS011;2782;52.362;10.012;2022-10-16T23:04:46;2.80;;;2.70;;
5519;SDS011;2782;52.362;10.012;2022-10-16T23:11:28;2.80;;;2.60;;
5519;SDS011;2782;52.362;10.012;2022-10-16T23:18:10;2.67;;;2.47;;
5519;SDS011;2782;52.362;10.012;2022-10-16T23:24:53;2.90;;;2.70;;
5519;SDS011;2782;52.362;10.012;2022-10-16T23:31:34;2.80;;;2.57;;
5519;SDS011;2782;52.362;10.012;2022-10-16T23:38:18;2.23;;;2.13;;
5519;SDS011;2782;52.362;10.012;2022-10-16T23:45:01;2.27;;;2.17;;
5519;SDS011;2782;52.362;10.012;2022-10-16T23:51:42;2.13;;;2.00;;
5519;SDS011;2782;52.362;10.012;2022-10-16T23:58:24;2.20;;;2.10;;
